sensor_id;sensor_type;location;lat;lon;timestamp;P1;durP1;ratioP1;P2;durP2;ratioP2
37067;SDS011;22982;42.848;25.468;2024-02-14T00:01:45;1.58;;;1.17;;
37067;SDS011;22982;42.848;25.468;2024-02-14T00:06:48;2.25;;;1.83;;
37067;SDS011;22982;42.848;25.468;2024-02-14T00:17:41;1.95;;;1.17;;
37067;SDS011;22982;42.848;25.468;2024-02-14T00:22:43;1.70;;;1.15;;
37067;SDS011;22982;42.848;25.468;2024-02-14T00:27:46;6.57;;;3.97;;
37067;SDS011;22982;42.848;25.468;2024-02-14T00:32:48;1.45;;;1.00;;
37067;SDS011;22982;42.848;25.468;2024-02-14T00:37:53;1.42;;;1.08;;
37067;SDS011;22982;42.848;25.468;2024-02-14T00:42:55;1.10;;;1.00;;
37067;SDS011;22982;42.848;25.468;2024-02-14T00:47:58;0.90;;;0.90;;
37067;SDS011;22982;42.848;25.468;2024-02-14T00:53:04;7.10;;;2.90;;
37067;SDS011;22982;42.848;25.468;2024-02-14T00:58:06;2.47;;;1.10;;
37067;SDS011;22982;42.848;25.468;2024-02-14T01:03:10;1.25;;;1.10;;
37067;SDS011;22982;42.848;25.468;2024-02-14T01:08:14;1.42;;;1.13;;
37067;SDS011;22982;42.848;25.468;2024-02-14T01:13:18;0.85;;;0.85;;
37067;SDS011;22982;42.848;25.468;2024-02-14T01:18:21;1.20;;;1.10;;
37067;SDS011;22982;42.848;25.468;2024-02-14T01:23:24;1.60;;;1.08;;
37067;SDS011;22982;42.848;25.468;2024-02-14T01:28:27;0.90;;;0.90;;
37067;SDS011;22982;42.848;25.468;2024-02-14T01:33:29;0.80;;;0.80;;
37067;SDS011;22982;42.848;25.468;2024-02-14T01:38:33;1.25;;;1.08;;
37067;SDS011;22982;42.848;25.468;2024-02-14T01:43:37;1.13;;;1.02;;
37067;SDS011;22982;42.848;25.468;2024-02-14T01:48:41;1.20;;;1.00;;
37067;SDS011;22982;42.848;25.468;2024-02-14T01:53:44;1.23;;;0.80;;
37067;SDS011;22982;42.848;25.468;2024-02-14T01:58:49;0.90;;;0.82;;
37067;SDS011;22982;42.848;25.468;2024-02-14T02:03:53;1.70;;;1.05;;
37067;SDS011;22982;42.848;25.468;2024-02-14T02:08:57;4.70;;;1.90;;
37067;SDS011;22982;42.848;25.468;2024-02-14T02:14:00;1.20;;;1.10;;
37067;SDS011;22982;42.848;25.468;2024-02-14T02:19:03;1.00;;;0.90;;
37067;SDS011;22982;42.848;25.468;2024-02-14T02:24:11;1.17;;;1.08;;
37067;SDS011;22982;42.848;25.468;2024-02-14T02:29:13;1.20;;;1.10;;
37067;SDS011;22982;42.848;25.468;2024-02-14T02:34:18;1.42;;;1.10;;
37067;SDS011;22982;42.848;25.468;2024-02-14T02:39:21;0.93;;;0.90;;
37067;SDS011;22982;42.848;25.468;2024-02-14T02:44:23;4.93;;;0.93;;
37067;SDS011;22982;42.848;25.468;2024-02-14T02:49:26;1.20;;;1.10;;
37067;SDS011;22982;42.848;25.468;2024-02-14T02:54:31;1.40;;;1.20;;
37067;SDS011;22982;42.848;25.468;2024-02-14T02:59:35;1.80;;;1.40;;
37067;SDS011;22982;42.848;25.468;2024-02-14T03:04:38;1.02;;;1.00;;
37067;SDS011;22982;42.848;25.468;2024-02-14T03:09:56;2.15;;;1.38;;
37067;SDS011;22982;42.848;25.468;2024-02-14T03:14:58;4.63;;;3.13;;
37067;SDS011;22982;42.848;25.468;2024-02-14T03:25:27;2.10;;;1.13;;
37067;SDS011;22982;42.848;25.468;2024-02-14T03:30:30;0.90;;;0.90;;
37067;SDS011;22982;42.848;25.468;2024-02-14T03:35:32;1.95;;;1.55;;
37067;SDS011;22982;42.848;25.468;2024-02-14T03:40:35;1.20;;;0.90;;
37067;SDS011;22982;42.848;25.468;2024-02-14T03:45:40;1.85;;;1.50;;
37067;SDS011;22982;42.848;25.468;2024-02-14T03:50:43;1.40;;;1.25;;
37067;SDS011;22982;42.848;25.468;2024-02-14T03:55:51;1.30;;;1.20;;
37067;SDS011;22982;42.848;25.468;2024-02-14T04:00:56;1.15;;;1.05;;
37067;SDS011;22982;42.848;25.468;2024-02-14T04:05:58;2.45;;;1.20;;
37067;SDS011;22982;42.848;25.468;2024-02-14T04:11:02;1.15;;;1.05;;
37067;SDS011;22982;42.848;25.468;2024-02-14T04:16:04;2.05;;;1.50;;
37067;SDS011;22982;42.848;25.468;2024-02-14T04:21:07;2.40;;;1.77;;
37067;SDS011;22982;42.848;25.468;2024-02-14T04:26:10;2.13;;;1.50;;
37067;SDS011;22982;42.848;25.468;2024-02-14T04:31:19;2.05;;;1.77;;
37067;SDS011;22982;42.848;25.468;2024-02-14T04:36:22;1.35;;;1.20;;
37067;SDS011;22982;42.848;25.468;2024-02-14T04:41:25;2.13;;;1.55;;
37067;SDS011;22982;42.848;25.468;2024-02-14T04:46:28;1.63;;;1.30;;
37067;SDS011;22982;42.848;25.468;2024-02-14T04:51:31;1.70;;;1.25;;
37067;SDS011;22982;42.848;25.468;2024-02-14T04:56:37;2.03;;;1.60;;
37067;SDS011;22982;42.848;25.468;2024-02-14T05:01:39;2.00;;;1.48;;
37067;SDS011;22982;42.848;25.468;2024-02-14T05:06:42;3.25;;;2.20;;
37067;SDS011;22982;42.848;25.468;2024-02-14T05:11:47;2.72;;;2.13;;
37067;SDS011;22982;42.848;25.468;2024-02-14T05:16:50;6.80;;;3.13;;
37067;SDS011;22982;42.848;25.468;2024-02-14T05:21:53;10.45;;;4.72;;
37067;SDS011;22982;42.848;25.468;2024-02-14T05:26:56;1.73;;;1.30;;
37067;SDS011;22982;42.848;25.468;2024-02-14T05:31:59;2.88;;;2.53;;
37067;SDS011;22982;42.848;25.468;2024-02-14T05:37:01;1.70;;;1.42;;
37067;SDS011;22982;42.848;25.468;2024-02-14T05:42:04;3.40;;;2.08;;
37067;SDS011;22982;42.848;25.468;2024-02-14T05:47:07;1.70;;;1.17;;
37067;SDS011;22982;42.848;25.468;2024-02-14T05:52:11;3.17;;;2.10;;
37067;SDS011;22982;42.848;25.468;2024-02-14T05:57:13;2.92;;;2.22;;
37067;SDS011;22982;42.848;25.468;2024-02-14T06:02:15;3.35;;;2.33;;
37067;SDS011;22982;42.848;25.468;2024-02-14T06:07:19;4.65;;;2.40;;
37067;SDS011;22982;42.848;25.468;2024-02-14T06:12:21;6.05;;;2.85;;
37067;SDS011;22982;42.848;25.468;2024-02-14T06:17:24;3.22;;;2.38;;
37067;SDS011;22982;42.848;25.468;2024-02-14T06:22:30;2.25;;;1.80;;
37067;SDS011;22982;42.848;25.468;2024-02-14T06:27:34;5.28;;;3.58;;
37067;SDS011;22982;42.848;25.468;2024-02-14T06:32:36;3.20;;;2.90;;
37067;SDS011;22982;42.848;25.468;2024-02-14T06:37:40;4.20;;;3.47;;
37067;SDS011;22982;42.848;25.468;2024-02-14T06:42:55;4.50;;;3.55;;
37067;SDS011;22982;42.848;25.468;2024-02-14T06:48:00;2.95;;;2.28;;
37067;SDS011;22982;42.848;25.468;2024-02-14T06:53:03;5.50;;;3.90;;
37067;SDS011;22982;42.848;25.468;2024-02-14T06:58:06;13.88;;;7.80;;
37067;SDS011;22982;42.848;25.468;2024-02-14T07:03:10;7.00;;;5.35;;
37067;SDS011;22982;42.848;25.468;2024-02-14T07:08:12;8.82;;;5.90;;
37067;SDS011;22982;42.848;25.468;2024-02-14T07:13:20;3.95;;;3.00;;
37067;SDS011;22982;42.848;25.468;2024-02-14T07:18:22;6.13;;;4.38;;
37067;SDS011;22982;42.848;25.468;2024-02-14T07:23:26;4.70;;;3.38;;
37067;SDS011;22982;42.848;25.468;2024-02-14T07:28:28;7.85;;;6.05;;
37067;SDS011;22982;42.848;25.468;2024-02-14T07:33:31;4.20;;;3.30;;
37067;SDS011;22982;42.848;25.468;2024-02-14T07:38:34;3.70;;;2.97;;
37067;SDS011;22982;42.848;25.468;2024-02-14T07:43:36;13.07;;;7.82;;
37067;SDS011;22982;42.848;25.468;2024-02-14T07:48:39;9.90;;;6.35;;
37067;SDS011;22982;42.848;25.468;2024-02-14T07:53:42;4.40;;;3.53;;
37067;SDS011;22982;42.848;25.468;2024-02-14T07:58:45;4.00;;;2.42;;
37067;SDS011;22982;42.848;25.468;2024-02-14T08:03:48;10.68;;;6.30;;
37067;SDS011;22982;42.848;25.468;2024-02-14T08:08:50;11.50;;;7.40;;
37067;SDS011;22982;42.848;25.468;2024-02-14T08:13:59;8.52;;;4.90;;
37067;SDS011;22982;42.848;25.468;2024-02-14T08:19:02;3.65;;;2.60;;
37067;SDS011;22982;42.848;25.468;2024-02-14T08:24:08;9.70;;;5.35;;
37067;SDS011;22982;42.848;25.468;2024-02-14T08:29:11;6.13;;;3.08;;
37067;SDS011;22982;42.848;25.468;2024-02-14T08:34:16;4.43;;;2.10;;
37067;SDS011;22982;42.848;25.468;2024-02-14T08:39:19;5.65;;;3.50;;
37067;SDS011;22982;42.848;25.468;2024-02-14T08:44:21;3.58;;;2.92;;
37067;SDS011;22982;42.848;25.468;2024-02-14T08:49:25;4.72;;;3.70;;
37067;SDS011;22982;42.848;25.468;2024-02-14T08:54:27;2.13;;;1.90;;
37067;SDS011;22982;42.848;25.468;2024-02-14T08:59:30;6.82;;;3.67;;
37067;SDS011;22982;42.848;25.468;2024-02-14T09:04:32;3.35;;;2.75;;
37067;SDS011;22982;42.848;25.468;2024-02-14T09:09:35;3.13;;;2.58;;
37067;SDS011;22982;42.848;25.468;2024-02-14T09:14:40;5.00;;;3.60;;
37067;SDS011;22982;42.848;25.468;2024-02-14T09:19:42;4.07;;;3.00;;
37067;SDS011;22982;42.848;25.468;2024-02-14T09:24:45;3.17;;;2.60;;
37067;SDS011;22982;42.848;25.468;2024-02-14T09:29:47;2.13;;;1.90;;
37067;SDS011;22982;42.848;25.468;2024-02-14T09:34:50;9.85;;;6.20;;
37067;SDS011;22982;42.848;25.468;2024-02-14T09:39:57;4.47;;;3.67;;
37067;SDS011;22982;42.848;25.468;2024-02-14T09:45:00;10.43;;;7.45;;
37067;SDS011;22982;42.848;25.468;2024-02-14T09:50:04;5.97;;;4.50;;
37067;SDS011;22982;42.848;25.468;2024-02-14T09:55:09;22.00;;;11.73;;
37067;SDS011;22982;42.848;25.468;2024-02-14T10:00:12;7.57;;;5.50;;
37067;SDS011;22982;42.848;25.468;2024-02-14T10:05:19;8.32;;;5.07;;
37067;SDS011;22982;42.848;25.468;2024-02-14T10:10:21;4.50;;;3.63;;
37067;SDS011;22982;42.848;25.468;2024-02-14T10:15:24;3.45;;;3.03;;
37067;SDS011;22982;42.848;25.468;2024-02-14T10:20:26;2.55;;;2.10;;
37067;SDS011;22982;42.848;25.468;2024-02-14T10:25:35;4.57;;;3.10;;
37067;SDS011;22982;42.848;25.468;2024-02-14T10:30:38;4.50;;;3.50;;
37067;SDS011;22982;42.848;25.468;2024-02-14T10:35:43;4.53;;;4.00;;
37067;SDS011;22982;42.848;25.468;2024-02-14T10:40:47;6.00;;;3.78;;
37067;SDS011;22982;42.848;25.468;2024-02-14T10:45:52;2.88;;;2.53;;
37067;SDS011;22982;42.848;25.468;2024-02-14T10:50:56;13.32;;;8.57;;
37067;SDS011;22982;42.848;25.468;2024-02-14T10:56:03;3.92;;;3.40;;
37067;SDS011;22982;42.848;25.468;2024-02-14T11:01:06;10.43;;;8.18;;
37067;SDS011;22982;42.848;25.468;2024-02-14T11:06:15;2.92;;;2.60;;
37067;SDS011;22982;42.848;25.468;2024-02-14T11:11:19;4.32;;;3.20;;
37067;SDS011;22982;42.848;25.468;2024-02-14T11:16:26;4.75;;;4.10;;
37067;SDS011;22982;42.848;25.468;2024-02-14T11:21:44;5.20;;;3.92;;
37067;SDS011;22982;42.848;25.468;2024-02-14T11:26:50;5.70;;;4.82;;
37067;SDS011;22982;42.848;25.468;2024-02-14T11:31:57;3.70;;;2.80;;
37067;SDS011;22982;42.848;25.468;2024-02-14T11:37:03;3.35;;;2.53;;
37067;SDS011;22982;42.848;25.468;2024-02-14T11:42:07;9.02;;;5.00;;
37067;SDS011;22982;42.848;25.468;2024-02-14T11:47:12;6.45;;;4.57;;
37067;SDS011;22982;42.848;25.468;2024-02-14T11:52:14;3.30;;;3.00;;
37067;SDS011;22982;42.848;25.468;2024-02-14T11:57:19;3.70;;;2.92;;
37067;SDS011;22982;42.848;25.468;2024-02-14T12:02:21;4.32;;;3.45;;
37067;SDS011;22982;42.848;25.468;2024-02-14T12:07:24;3.35;;;2.63;;
37067;SDS011;22982;42.848;25.468;2024-02-14T12:12:28;5.10;;;4.28;;
37067;SDS011;22982;42.848;25.468;2024-02-14T12:17:31;5.22;;;4.03;;
37067;SDS011;22982;42.848;25.468;2024-02-14T12:22:39;6.93;;;6.22;;
37067;SDS011;22982;42.848;25.468;2024-02-14T12:27:42;3.38;;;2.92;;
37067;SDS011;22982;42.848;25.468;2024-02-14T12:32:58;2.80;;;2.38;;
37067;SDS011;22982;42.848;25.468;2024-02-14T12:43:11;4.43;;;2.83;;
37067;SDS011;22982;42.848;25.468;2024-02-14T12:48:22;3.58;;;3.22;;
37067;SDS011;22982;42.848;25.468;2024-02-14T12:53:30;79.28;;;42.45;;
37067;SDS011;22982;42.848;25.468;2024-02-14T12:58:34;66.85;;;33.03;;
37067;SDS011;22982;42.848;25.468;2024-02-14T13:03:36;26.45;;;14.60;;
37067;SDS011;22982;42.848;25.468;2024-02-14T13:08:40;22.98;;;15.23;;
37067;SDS011;22982;42.848;25.468;2024-02-14T13:13:44;41.28;;;24.17;;
37067;SDS011;22982;42.848;25.468;2024-02-14T13:18:47;27.85;;;19.23;;
37067;SDS011;22982;42.848;25.468;2024-02-14T13:23:49;14.32;;;9.60;;
37067;SDS011;22982;42.848;25.468;2024-02-14T13:28:52;31.27;;;19.40;;
37067;SDS011;22982;42.848;25.468;2024-02-14T13:33:56;18.55;;;12.35;;
37067;SDS011;22982;42.848;25.468;2024-02-14T13:38:58;8.35;;;5.95;;
37067;SDS011;22982;42.848;25.468;2024-02-14T13:44:07;28.77;;;19.38;;
37067;SDS011;22982;42.848;25.468;2024-02-14T13:49:10;29.83;;;17.58;;
37067;SDS011;22982;42.848;25.468;2024-02-14T13:54:17;18.65;;;11.80;;
37067;SDS011;22982;42.848;25.468;2024-02-14T13:59:20;36.10;;;21.63;;
37067;SDS011;22982;42.848;25.468;2024-02-14T14:04:23;27.58;;;18.55;;
37067;SDS011;22982;42.848;25.468;2024-02-14T14:09:28;18.38;;;12.98;;
37067;SDS011;22982;42.848;25.468;2024-02-14T14:14:32;15.00;;;11.05;;
37067;SDS011;22982;42.848;25.468;2024-02-14T14:19:35;11.48;;;7.55;;
37067;SDS011;22982;42.848;25.468;2024-02-14T14:24:38;9.45;;;7.22;;
37067;SDS011;22982;42.848;25.468;2024-02-14T14:30:27;12.15;;;8.52;;
37067;SDS011;22982;42.848;25.468;2024-02-14T14:35:30;20.42;;;14.73;;
37067;SDS011;22982;42.848;25.468;2024-02-14T14:40:35;17.52;;;11.57;;
37067;SDS011;22982;42.848;25.468;2024-02-14T14:51:05;23.98;;;15.85;;
37067;SDS011;22982;42.848;25.468;2024-02-14T14:56:10;9.30;;;6.75;;
37067;SDS011;22982;42.848;25.468;2024-02-14T15:01:13;13.40;;;9.23;;
37067;SDS011;22982;42.848;25.468;2024-02-14T15:06:16;12.07;;;9.63;;
37067;SDS011;22982;42.848;25.468;2024-02-14T15:11:18;13.80;;;9.18;;
37067;SDS011;22982;42.848;25.468;2024-02-14T15:16:24;12.23;;;7.20;;
37067;SDS011;22982;42.848;25.468;2024-02-14T15:21:26;24.33;;;16.90;;
37067;SDS011;22982;42.848;25.468;2024-02-14T15:26:30;26.42;;;19.23;;
37067;SDS011;22982;42.848;25.468;2024-02-14T15:31:41;13.52;;;10.35;;
37067;SDS011;22982;42.848;25.468;2024-02-14T15:37:03;17.65;;;9.07;;
37067;SDS011;22982;42.848;25.468;2024-02-14T15:42:07;25.23;;;18.02;;
37067;SDS011;22982;42.848;25.468;2024-02-14T15:47:12;12.55;;;9.15;;
37067;SDS011;22982;42.848;25.468;2024-02-14T15:52:15;11.95;;;7.93;;
37067;SDS011;22982;42.848;25.468;2024-02-14T15:57:22;14.75;;;8.98;;
37067;SDS011;22982;42.848;25.468;2024-02-14T16:02:25;17.08;;;11.65;;
37067;SDS011;22982;42.848;25.468;2024-02-14T16:07:29;12.98;;;8.07;;
37067;SDS011;22982;42.848;25.468;2024-02-14T16:12:32;14.00;;;10.43;;
37067;SDS011;22982;42.848;25.468;2024-02-14T16:17:34;44.65;;;30.35;;
37067;SDS011;22982;42.848;25.468;2024-02-14T16:22:39;15.63;;;11.50;;
37067;SDS011;22982;42.848;25.468;2024-02-14T16:27:44;20.98;;;17.50;;
37067;SDS011;22982;42.848;25.468;2024-02-14T16:32:48;24.63;;;16.65;;
37067;SDS011;22982;42.848;25.468;2024-02-14T16:37:56;12.65;;;7.15;;
37067;SDS011;22982;42.848;25.468;2024-02-14T16:43:04;8.73;;;5.50;;
37067;SDS011;22982;42.848;25.468;2024-02-14T16:59:09;11.27;;;6.60;;
37067;SDS011;22982;42.848;25.468;2024-02-14T17:05:01;12.93;;;8.25;;
37067;SDS011;22982;42.848;25.468;2024-02-14T17:10:03;25.63;;;16.50;;
37067;SDS011;22982;42.848;25.468;2024-02-14T17:15:06;7.95;;;5.45;;
37067;SDS011;22982;42.848;25.468;2024-02-14T17:25:21;8.02;;;4.93;;
37067;SDS011;22982;42.848;25.468;2024-02-14T17:30:24;18.65;;;10.98;;
37067;SDS011;22982;42.848;25.468;2024-02-14T17:35:26;11.40;;;4.97;;
37067;SDS011;22982;42.848;25.468;2024-02-14T17:40:30;18.13;;;10.43;;
37067;SDS011;22982;42.848;25.468;2024-02-14T17:45:33;20.00;;;10.10;;
37067;SDS011;22982;42.848;25.468;2024-02-14T17:50:38;23.83;;;13.88;;
37067;SDS011;22982;42.848;25.468;2024-02-14T17:55:40;25.42;;;15.77;;
37067;SDS011;22982;42.848;25.468;2024-02-14T18:00:46;25.60;;;16.67;;
37067;SDS011;22982;42.848;25.468;2024-02-14T18:05:50;15.27;;;9.98;;
37067;SDS011;22982;42.848;25.468;2024-02-14T18:10:52;26.70;;;14.93;;
37067;SDS011;22982;42.848;25.468;2024-02-14T18:15:57;37.15;;;15.57;;
37067;SDS011;22982;42.848;25.468;2024-02-14T18:21:00;20.85;;;10.88;;
37067;SDS011;22982;42.848;25.468;2024-02-14T18:26:03;30.75;;;17.27;;
37067;SDS011;22982;42.848;25.468;2024-02-14T18:31:08;25.85;;;14.00;;
37067;SDS011;22982;42.848;25.468;2024-02-14T18:36:14;10.32;;;6.90;;
37067;SDS011;22982;42.848;25.468;2024-02-14T18:41:16;11.40;;;7.55;;
37067;SDS011;22982;42.848;25.468;2024-02-14T18:46:18;17.73;;;11.82;;
37067;SDS011;22982;42.848;25.468;2024-02-14T18:51:22;11.90;;;7.43;;
37067;SDS011;22982;42.848;25.468;2024-02-14T18:56:24;8.95;;;5.90;;
37067;SDS011;22982;42.848;25.468;2024-02-14T19:01:27;11.32;;;7.72;;
37067;SDS011;22982;42.848;25.468;2024-02-14T19:06:31;22.23;;;14.23;;
37067;SDS011;22982;42.848;25.468;2024-02-14T19:11:36;8.73;;;6.65;;
37067;SDS011;22982;42.848;25.468;2024-02-14T19:16:40;10.40;;;6.60;;
37067;SDS011;22982;42.848;25.468;2024-02-14T19:21:43;9.95;;;6.90;;
37067;SDS011;22982;42.848;25.468;2024-02-14T19:26:48;21.65;;;11.95;;
37067;SDS011;22982;42.848;25.468;2024-02-14T19:31:50;19.60;;;11.35;;
37067;SDS011;22982;42.848;25.468;2024-02-14T19:36:53;14.20;;;8.60;;
37067;SDS011;22982;42.848;25.468;2024-02-14T19:41:56;13.90;;;9.60;;
37067;SDS011;22982;42.848;25.468;2024-02-14T19:46:58;15.23;;;8.30;;
37067;SDS011;22982;42.848;25.468;2024-02-14T19:52:01;12.05;;;7.68;;
37067;SDS011;22982;42.848;25.468;2024-02-14T19:57:05;30.02;;;15.90;;
37067;SDS011;22982;42.848;25.468;2024-02-14T20:02:08;11.23;;;8.35;;
37067;SDS011;22982;42.848;25.468;2024-02-14T20:07:11;15.88;;;10.43;;
37067;SDS011;22982;42.848;25.468;2024-02-14T20:12:13;11.00;;;7.55;;
37067;SDS011;22982;42.848;25.468;2024-02-14T20:17:16;10.65;;;6.45;;
37067;SDS011;22982;42.848;25.468;2024-02-14T20:22:19;15.20;;;10.05;;
37067;SDS011;22982;42.848;25.468;2024-02-14T20:27:21;15.88;;;9.45;;
37067;SDS011;22982;42.848;25.468;2024-02-14T20:32:26;16.30;;;8.82;;
37067;SDS011;22982;42.848;25.468;2024-02-14T20:37:28;10.70;;;7.00;;
37067;SDS011;22982;42.848;25.468;2024-02-14T20:42:32;7.60;;;5.78;;
37067;SDS011;22982;42.848;25.468;2024-02-14T20:47:34;9.68;;;6.20;;
37067;SDS011;22982;42.848;25.468;2024-02-14T20:52:37;10.77;;;6.70;;
37067;SDS011;22982;42.848;25.468;2024-02-14T20:57:43;11.93;;;5.10;;
37067;SDS011;22982;42.848;25.468;2024-02-14T21:02:46;9.93;;;6.03;;
37067;SDS011;22982;42.848;25.468;2024-02-14T21:07:49;15.18;;;9.05;;
37067;SDS011;22982;42.848;25.468;2024-02-14T21:12:54;36.47;;;20.67;;
37067;SDS011;22982;42.848;25.468;2024-02-14T21:17:59;18.90;;;9.88;;
37067;SDS011;22982;42.848;25.468;2024-02-14T21:23:01;27.02;;;14.45;;
37067;SDS011;22982;42.848;25.468;2024-02-14T21:28:04;43.15;;;23.50;;
37067;SDS011;22982;42.848;25.468;2024-02-14T21:33:06;18.67;;;10.40;;
37067;SDS011;22982;42.848;25.468;2024-02-14T21:38:09;57.10;;;32.75;;
37067;SDS011;22982;42.848;25.468;2024-02-14T21:43:12;28.20;;;16.60;;
37067;SDS011;22982;42.848;25.468;2024-02-14T21:48:15;55.00;;;30.30;;
37067;SDS011;22982;42.848;25.468;2024-02-14T21:53:20;45.05;;;25.75;;
37067;SDS011;22982;42.848;25.468;2024-02-14T21:58:23;27.23;;;16.00;;
37067;SDS011;22982;42.848;25.468;2024-02-14T22:03:27;52.42;;;27.13;;
37067;SDS011;22982;42.848;25.468;2024-02-14T22:08:34;11.02;;;6.72;;
37067;SDS011;22982;42.848;25.468;2024-02-14T22:13:37;22.95;;;11.18;;
37067;SDS011;22982;42.848;25.468;2024-02-14T22:18:40;28.63;;;14.60;;
37067;SDS011;22982;42.848;25.468;2024-02-14T22:23:43;12.55;;;7.65;;
37067;SDS011;22982;42.848;25.468;2024-02-14T22:28:47;52.40;;;27.15;;
37067;SDS011;22982;42.848;25.468;2024-02-14T22:33:50;28.95;;;13.07;;
37067;SDS011;22982;42.848;25.468;2024-02-14T22:38:55;44.60;;;22.85;;
37067;SDS011;22982;42.848;25.468;2024-02-14T22:43:58;80.40;;;40.00;;
37067;SDS011;22982;42.848;25.468;2024-02-14T22:49:00;22.23;;;11.82;;
37067;SDS011;22982;42.848;25.468;2024-02-14T22:54:04;85.70;;;37.45;;
